createdAt,value
2023-06-29T00:01:58.020Z,17.94
2023-06-29T00:04:27.265Z,17.97
2023-06-29T00:06:55.466Z,17.77
2023-06-29T00:09:23.580Z,17.81
2023-06-29T00:11:50.564Z,17.67
2023-06-29T00:14:17.414Z,17.74
2023-06-29T00:16:44.381Z,17.70
2023-06-29T00:19:13.033Z,17.65
2023-06-29T00:21:40.238Z,17.78
2023-06-29T00:24:07.286Z,17.82
2023-06-29T00:26:34.469Z,17.92
2023-06-29T00:29:01.316Z,18.02
2023-06-29T00:31:28.121Z,17.88
2023-06-29T00:33:55.021Z,17.30
2023-06-29T00:36:22.182Z,16.75
2023-06-29T00:38:49.400Z,16.78
2023-06-29T00:41:16.078Z,17.13
2023-06-29T00:43:44.180Z,16.73
2023-06-29T00:46:11.691Z,16.36
2023-06-29T00:48:39.183Z,16.42
2023-06-29T00:51:06.396Z,16.67
2023-06-29T00:53:33.158Z,16.55
2023-06-29T00:56:01.814Z,16.68
2023-06-29T00:58:28.830Z,16.79
2023-06-29T01:00:57.180Z,16.73
2023-06-29T01:03:24.527Z,16.68
2023-06-29T01:05:55.314Z,16.76
2023-06-29T01:08:27.067Z,16.85
2023-06-29T01:10:54.381Z,16.43
2023-06-29T01:13:21.822Z,16.29
2023-06-29T01:15:49.436Z,16.08
2023-06-29T01:18:18.081Z,16.22
2023-06-29T01:20:46.437Z,16.36
2023-06-29T01:23:19.066Z,16.30
2023-06-29T01:25:46.692Z,16.35
2023-06-29T01:28:13.684Z,16.33
2023-06-29T01:30:51.197Z,16.32
2023-06-29T01:33:21.629Z,16.33
2023-06-29T01:35:50.424Z,16.24
2023-06-29T01:38:22.405Z,16.29
2023-06-29T01:40:49.968Z,16.30
2023-06-29T01:43:18.516Z,16.35
2023-06-29T01:45:46.212Z,16.31
2023-06-29T01:48:13.183Z,16.12
2023-06-29T01:50:40.253Z,16.16
2023-06-29T01:53:07.412Z,16.35
2023-06-29T01:55:34.423Z,16.28
2023-06-29T01:58:01.453Z,16.30
2023-06-29T02:00:28.324Z,16.39
2023-06-29T02:02:55.691Z,16.53
2023-06-29T02:05:22.866Z,16.47
2023-06-29T02:07:49.846Z,16.45
2023-06-29T02:10:17.182Z,16.17
2023-06-29T02:12:44.092Z,16.00
2023-06-29T02:15:11.587Z,16.09
2023-06-29T02:17:38.767Z,16.20
2023-06-29T02:20:08.611Z,16.25
2023-06-29T02:22:35.510Z,16.06
2023-06-29T02:25:03.357Z,15.81
2023-06-29T02:27:30.261Z,15.57
2023-06-29T02:29:57.028Z,15.53
2023-06-29T02:32:23.862Z,15.43
2023-06-29T02:34:50.541Z,15.28
2023-06-29T02:37:17.925Z,15.21
2023-06-29T02:39:44.699Z,15.21
2023-06-29T02:42:11.367Z,15.18
2023-06-29T02:44:38.053Z,15.19
2023-06-29T02:47:05.033Z,15.25
2023-06-29T02:49:31.637Z,15.32
2023-06-29T02:51:58.255Z,15.26
2023-06-29T02:54:24.869Z,15.17
2023-06-29T02:56:51.498Z,15.24
2023-06-29T02:59:18.114Z,15.33
2023-06-29T03:01:44.837Z,15.45
2023-06-29T03:04:11.537Z,15.54
2023-06-29T03:06:38.163Z,15.54
2023-06-29T03:09:05.484Z,15.45
2023-06-29T03:11:32.125Z,15.39
2023-06-29T03:13:59.103Z,15.28
2023-06-29T03:16:26.484Z,15.28
2023-06-29T03:18:53.249Z,15.23
2023-06-29T03:21:21.009Z,15.53
2023-06-29T03:23:48.251Z,15.61
2023-06-29T03:26:14.984Z,15.50
2023-06-29T03:28:41.630Z,15.48
2023-06-29T03:31:08.304Z,15.55
2023-06-29T03:33:35.028Z,15.49
2023-06-29T03:36:01.672Z,15.26
2023-06-29T03:38:28.318Z,15.29
2023-06-29T03:40:54.967Z,15.43
2023-06-29T03:43:21.574Z,15.38
2023-06-29T03:45:48.237Z,15.36
2023-06-29T03:48:14.994Z,15.40
2023-06-29T03:50:41.829Z,15.35
2023-06-29T03:53:09.912Z,15.25
2023-06-29T03:55:36.975Z,15.32
2023-06-29T03:58:03.632Z,15.31
2023-06-29T04:00:30.340Z,15.34
2023-06-29T04:02:57.123Z,15.39
2023-06-29T04:05:23.891Z,15.36
2023-06-29T04:07:51.114Z,15.41
2023-06-29T04:10:17.899Z,15.45
2023-06-29T04:12:44.664Z,15.44
2023-06-29T04:15:11.520Z,15.50
2023-06-29T04:17:38.237Z,15.57
2023-06-29T04:20:05.391Z,15.80
2023-06-29T04:22:32.101Z,15.97
2023-06-29T04:24:58.709Z,16.08
2023-06-29T04:27:25.509Z,16.20
2023-06-29T04:29:52.138Z,16.28
2023-06-29T04:32:19.090Z,16.39
2023-06-29T04:34:48.969Z,16.45
2023-06-29T04:37:15.885Z,16.41
2023-06-29T04:39:42.591Z,16.53
2023-06-29T04:42:14.348Z,16.66
2023-06-29T04:44:41.165Z,16.78
2023-06-29T04:47:08.009Z,16.90
2023-06-29T04:49:38.708Z,16.96
2023-06-29T04:52:06.549Z,16.99
2023-06-29T04:54:33.352Z,17.00
2023-06-29T04:57:00.792Z,17.26
2023-06-29T04:59:28.789Z,17.71
2023-06-29T05:01:55.757Z,17.89
2023-06-29T05:04:22.871Z,17.92
2023-06-29T05:06:49.711Z,18.03
2023-06-29T05:09:20.693Z,18.06
2023-06-29T05:11:47.426Z,18.00
2023-06-29T05:14:14.269Z,17.99
2023-06-29T05:16:40.904Z,17.97
2023-06-29T05:19:07.658Z,17.97
2023-06-29T05:21:35.153Z,18.00
2023-06-29T05:24:01.942Z,17.94
2023-06-29T05:26:28.664Z,17.98
2023-06-29T05:29:05.281Z,18.02
2023-06-29T05:31:33.133Z,18.12
2023-06-29T05:33:59.910Z,18.15
2023-06-29T05:36:27.828Z,18.23
2023-06-29T05:38:54.463Z,18.26
2023-06-29T05:41:21.118Z,18.31
2023-06-29T05:43:47.802Z,18.34
2023-06-29T05:46:14.488Z,18.38
2023-06-29T05:48:41.094Z,18.46
2023-06-29T05:51:07.730Z,18.62
2023-06-29T05:53:34.701Z,18.76
2023-06-29T05:56:01.457Z,19.01
2023-06-29T05:58:28.083Z,18.92
2023-06-29T06:00:54.856Z,19.13
2023-06-29T06:03:22.678Z,19.28
2023-06-29T06:05:49.466Z,19.35
2023-06-29T06:08:16.222Z,19.57
2023-06-29T06:10:43.539Z,19.51
2023-06-29T06:13:10.626Z,19.67
2023-06-29T06:15:37.396Z,19.80
2023-06-29T06:18:04.149Z,19.84
2023-06-29T06:20:31.192Z,19.70
2023-06-29T06:22:57.979Z,19.92
2023-06-29T06:25:24.726Z,20.14
2023-06-29T06:27:51.784Z,20.57
2023-06-29T06:30:18.559Z,20.61
2023-06-29T06:32:45.835Z,20.60
2023-06-29T06:35:13.548Z,20.88
2023-06-29T06:37:40.362Z,21.19
2023-06-29T06:40:10.321Z,21.30
2023-06-29T06:42:37.709Z,21.40
2023-06-29T06:45:05.273Z,21.38
2023-06-29T06:47:36.212Z,21.48
2023-06-29T06:50:03.883Z,21.15
2023-06-29T06:52:30.620Z,21.66
2023-06-29T06:54:57.413Z,21.84
2023-06-29T06:57:24.465Z,22.04
2023-06-29T06:59:51.100Z,21.83
2023-06-29T07:02:17.993Z,22.21
2023-06-29T07:04:44.746Z,22.20
2023-06-29T07:07:11.548Z,22.31
2023-06-29T07:09:38.992Z,22.88
2023-06-29T07:12:06.254Z,22.98
2023-06-29T07:14:36.606Z,22.89
2023-06-29T07:17:03.632Z,23.20
2023-06-29T07:24:30.134Z,24.03
2023-06-29T07:26:56.926Z,23.71
2023-06-29T07:29:23.678Z,23.32
2023-06-29T07:31:50.564Z,23.66
2023-06-29T07:34:17.420Z,24.17
2023-06-29T07:36:44.702Z,24.62
2023-06-29T07:39:11.487Z,25.19
2023-06-29T07:41:38.363Z,25.53
2023-06-29T07:44:05.272Z,24.53
2023-06-29T07:46:33.227Z,24.48
2023-06-29T07:49:00.560Z,24.79
2023-06-29T07:51:33.444Z,24.16
2023-06-29T07:54:02.280Z,24.62
2023-06-29T07:58:39.237Z,24.21
2023-06-29T07:59:16.881Z,25.44
2023-06-29T08:01:43.715Z,24.59
2023-06-29T08:04:10.968Z,24.54
2023-06-29T08:06:50.761Z,24.73
2023-06-29T08:09:18.642Z,24.96
2023-06-29T08:11:45.481Z,25.04
2023-06-29T08:14:12.281Z,24.51
2023-06-29T08:16:39.126Z,24.79
2023-06-29T08:19:05.984Z,25.34
2023-06-29T08:21:32.881Z,25.64
2023-06-29T08:23:59.683Z,25.95
2023-06-29T08:26:26.477Z,26.27
2023-06-29T08:28:53.241Z,25.85
2023-06-29T08:31:20.607Z,26.68
2023-06-29T08:33:47.705Z,26.20
2023-06-29T08:36:14.521Z,26.58
2023-06-29T08:38:41.292Z,27.53
2023-06-29T08:41:08.048Z,26.39
2023-06-29T08:43:34.834Z,26.94
2023-06-29T08:46:03.657Z,25.70
2023-06-29T08:48:32.288Z,26.28
2023-06-29T08:51:03.567Z,27.49
2023-06-29T08:53:30.742Z,27.39
2023-06-29T08:55:59.079Z,26.46
2023-06-29T08:58:26.331Z,27.81
2023-06-29T09:00:55.421Z,27.01
2023-06-29T09:03:26.597Z,26.69
2023-06-29T09:05:55.849Z,27.29
2023-06-29T09:08:25.017Z,26.10
2023-06-29T09:10:51.871Z,26.37
2023-06-29T09:13:19.737Z,27.31
2023-06-29T09:15:46.665Z,28.37
2023-06-29T09:18:13.427Z,28.49
2023-06-29T09:20:40.330Z,27.90
2023-06-29T09:23:07.194Z,27.51
2023-06-29T09:25:35.717Z,27.44
2023-06-29T09:28:06.794Z,27.58
2023-06-29T09:30:41.322Z,26.75
2023-06-29T09:33:12.368Z,26.68
2023-06-29T09:35:49.154Z,26.79
2023-06-29T09:38:17.252Z,27.13
2023-06-29T09:40:51.863Z,27.47
2023-06-29T09:43:20.262Z,26.65
2023-06-29T09:45:47.122Z,27.53
2023-06-29T09:50:52.760Z,26.95
2023-06-29T09:53:31.977Z,26.62
2023-06-29T09:56:00.005Z,26.55
2023-06-29T09:58:29.368Z,27.47
2023-06-29T10:00:59.949Z,27.20
2023-06-29T10:03:32.804Z,27.31
2023-06-29T10:06:04.990Z,27.75
2023-06-29T10:08:34.220Z,28.62
2023-06-29T10:11:03.992Z,27.36
2023-06-29T10:13:34.585Z,28.43
2023-06-29T10:16:04.121Z,29.44
2023-06-29T10:18:38.254Z,29.09
2023-06-29T10:21:05.290Z,28.66
2023-06-29T10:23:32.322Z,28.85
2023-06-29T10:26:01.528Z,28.46
2023-06-29T10:28:28.279Z,27.61
2023-06-29T10:30:59.428Z,28.12
2023-06-29T10:33:27.324Z,27.46
2023-06-29T10:36:04.927Z,28.36
2023-06-29T10:38:35.765Z,28.37
2023-06-29T10:41:05.516Z,27.65
2023-06-29T10:43:56.989Z,28.21
2023-06-29T10:46:45.846Z,28.52
2023-06-29T10:49:26.770Z,27.51
2023-06-29T10:51:55.654Z,27.83
2023-06-29T10:54:25.689Z,28.96
2023-06-29T10:57:03.881Z,27.78
2023-06-29T10:59:31.311Z,27.98
2023-06-29T11:01:58.398Z,28.19
2023-06-29T11:04:26.281Z,27.84
2023-06-29T11:06:53.282Z,27.22
2023-06-29T11:09:21.028Z,27.08
2023-06-29T11:11:49.251Z,27.40
2023-06-29T11:14:16.750Z,27.46
2023-06-29T11:16:43.691Z,27.15
2023-06-29T11:19:13.580Z,27.27
2023-06-29T11:21:42.097Z,26.71
2023-06-29T11:24:11.187Z,27.09
2023-06-29T11:26:38.586Z,27.11
2023-06-29T11:29:09.418Z,27.61
2023-06-29T11:31:36.365Z,28.33
2023-06-29T11:34:03.104Z,28.23
2023-06-29T11:36:31.595Z,27.81
2023-06-29T11:39:09.678Z,28.00
2023-06-29T11:41:40.911Z,28.47
2023-06-29T11:44:10.423Z,28.25
2023-06-29T11:46:40.569Z,27.37
2023-06-29T11:49:07.392Z,27.57
2023-06-29T11:51:39.873Z,26.81
2023-06-29T11:54:08.300Z,28.02
2023-06-29T11:56:42.747Z,28.40
2023-06-29T11:59:11.558Z,28.47
2023-06-29T12:01:41.232Z,27.42
2023-06-29T12:04:09.784Z,27.17
2023-06-29T12:06:37.456Z,27.62
2023-06-29T12:09:13.226Z,27.31
2023-06-29T12:11:40.879Z,27.37
2023-06-29T12:14:10.845Z,27.92
2023-06-29T12:19:12.270Z,27.32
2023-06-29T12:21:39.415Z,27.67
2023-06-29T12:24:06.706Z,27.84
2023-06-29T12:26:33.425Z,28.80
2023-06-29T12:29:00.096Z,29.19
2023-06-29T12:31:27.805Z,28.85
2023-06-29T12:33:54.567Z,28.66
2023-06-29T12:36:21.869Z,28.56
2023-06-29T12:38:49.325Z,28.55
2023-06-29T12:41:15.999Z,28.48
2023-06-29T12:43:42.704Z,28.27
2023-06-29T12:46:10.855Z,29.00
2023-06-29T12:48:40.372Z,29.18
2023-06-29T12:51:07.232Z,30.51
2023-06-29T12:53:33.953Z,30.13
2023-06-29T12:56:01.587Z,28.93
2023-06-29T12:58:28.401Z,29.21
2023-06-29T13:00:55.169Z,29.11
2023-06-29T13:03:22.239Z,29.51
2023-06-29T13:05:51.234Z,29.21
2023-06-29T13:08:17.885Z,28.65
2023-06-29T13:10:44.864Z,29.19
2023-06-29T13:13:11.637Z,30.48
2023-06-29T13:15:38.387Z,30.14
2023-06-29T13:18:05.120Z,29.90
2023-06-29T13:20:31.832Z,29.22
2023-06-29T13:22:58.485Z,29.81
2023-06-29T13:25:25.171Z,30.96
2023-06-29T13:27:51.865Z,30.32
2023-06-29T13:30:22.346Z,29.46
2023-06-29T13:32:49.650Z,29.48
2023-06-29T13:35:16.317Z,28.80
2023-06-29T13:37:43.040Z,28.89
2023-06-29T13:40:10.165Z,29.12
2023-06-29T13:42:36.880Z,28.97
2023-06-29T13:45:03.709Z,30.03
2023-06-29T13:47:30.682Z,30.02
2023-06-29T13:49:57.585Z,29.91
2023-06-29T13:52:24.247Z,30.08
2023-06-29T13:54:50.829Z,29.89
2023-06-29T13:57:17.465Z,29.37
2023-06-29T13:59:44.125Z,29.66
2023-06-29T14:02:11.121Z,29.60
2023-06-29T14:04:38.039Z,29.90
2023-06-29T14:07:04.813Z,29.60
2023-06-29T14:09:31.524Z,30.22
2023-06-29T14:11:58.907Z,30.45
2023-06-29T14:14:25.613Z,30.19
2023-06-29T14:16:52.247Z,31.00
2023-06-29T14:19:18.869Z,30.66
2023-06-29T14:21:45.521Z,30.38
2023-06-29T14:24:12.276Z,31.05
2023-06-29T14:26:39.041Z,30.20
2023-06-29T14:29:05.785Z,30.43
2023-06-29T14:31:32.665Z,29.96
2023-06-29T14:34:00.138Z,29.79
2023-06-29T14:36:26.906Z,31.24
2023-06-29T14:38:53.552Z,31.77
2023-06-29T14:41:20.958Z,30.63
2023-06-29T14:43:47.695Z,31.20
2023-06-29T14:46:14.356Z,30.34
2023-06-29T14:48:41.003Z,29.84
2023-06-29T14:51:07.703Z,29.87
2023-06-29T14:53:34.869Z,30.07
2023-06-29T14:56:10.058Z,29.89
2023-06-29T14:58:37.431Z,30.91
2023-06-29T15:01:04.664Z,30.15
2023-06-29T15:03:31.671Z,31.15
2023-06-29T15:05:58.477Z,30.82
2023-06-29T15:08:25.157Z,30.65
2023-06-29T15:10:52.096Z,30.04
2023-06-29T15:13:18.861Z,30.21
2023-06-29T15:15:46.043Z,29.69
2023-06-29T15:18:12.987Z,30.89
2023-06-29T15:20:39.658Z,30.61
2023-06-29T15:23:06.354Z,30.27
2023-06-29T15:25:33.302Z,30.39
2023-06-29T15:28:00.121Z,30.20
2023-06-29T15:30:26.956Z,30.59
2023-06-29T15:32:53.989Z,30.50
2023-06-29T15:35:21.213Z,30.46
2023-06-29T15:37:47.942Z,31.03
2023-06-29T15:40:15.226Z,30.53
2023-06-29T15:42:42.473Z,30.87
2023-06-29T15:45:09.561Z,31.17
2023-06-29T15:47:37.238Z,31.98
2023-06-29T15:50:05.970Z,30.57
2023-06-29T15:52:32.953Z,30.94
2023-06-29T15:54:59.913Z,31.46
2023-06-29T15:57:26.821Z,30.61
2023-06-29T15:59:53.861Z,31.03
2023-06-29T16:02:20.660Z,32.59
2023-06-29T16:04:47.342Z,32.24
2023-06-29T16:07:14.180Z,31.50
2023-06-29T16:09:40.918Z,32.41
2023-06-29T16:12:09.503Z,31.65
2023-06-29T16:14:36.168Z,32.41
2023-06-29T16:17:03.042Z,32.05
2023-06-29T16:19:29.877Z,32.89
2023-06-29T16:21:56.618Z,31.80
2023-06-29T16:24:23.361Z,31.38
2023-06-29T16:26:51.281Z,30.62
2023-06-29T16:29:18.922Z,31.70
2023-06-29T16:31:49.644Z,32.21
2023-06-29T16:34:16.426Z,31.29
2023-06-29T16:36:43.438Z,29.98
2023-06-29T16:39:10.297Z,31.20
2023-06-29T16:41:38.618Z,30.54
2023-06-29T16:44:05.561Z,30.16
2023-06-29T16:46:32.239Z,29.81
2023-06-29T16:49:00.233Z,30.37
2023-06-29T16:51:29.417Z,30.73
2023-06-29T16:53:59.435Z,30.41
2023-06-29T16:56:29.412Z,30.78
2023-06-29T16:58:56.800Z,30.81
2023-06-29T17:01:23.912Z,30.39
2023-06-29T17:03:50.729Z,29.41
2023-06-29T17:06:17.986Z,29.62
2023-06-29T17:08:45.334Z,29.51
2023-06-29T17:11:12.671Z,30.19
2023-06-29T17:13:39.481Z,29.94
2023-06-29T17:16:07.086Z,29.86
2023-06-29T17:18:39.109Z,29.62
2023-06-29T17:21:06.630Z,29.38
2023-06-29T17:23:33.721Z,29.44
2023-06-29T17:26:00.800Z,29.66
2023-06-29T17:28:27.767Z,29.46
2023-06-29T17:30:55.165Z,28.58
2023-06-29T17:33:23.576Z,28.75
2023-06-29T17:35:50.655Z,29.09
2023-06-29T17:38:17.438Z,29.15
2023-06-29T17:40:44.193Z,29.31
2023-06-29T17:43:11.121Z,29.30
2023-06-29T17:45:37.926Z,28.60
2023-06-29T17:48:07.323Z,29.07
2023-06-29T17:50:34.093Z,28.83
2023-06-29T17:53:00.846Z,28.87
2023-06-29T17:55:27.861Z,28.78
2023-06-29T17:57:54.900Z,28.28
2023-06-29T18:00:22.270Z,27.78
2023-06-29T18:02:49.082Z,27.94
2023-06-29T18:05:15.863Z,28.47
2023-06-29T18:07:42.684Z,28.54
2023-06-29T18:10:10.724Z,28.56
2023-06-29T18:12:38.226Z,28.50
2023-06-29T18:15:06.735Z,28.44
2023-06-29T18:17:34.214Z,28.43
2023-06-29T18:20:01.372Z,28.34
2023-06-29T18:22:28.423Z,28.32
2023-06-29T18:24:55.076Z,28.28
2023-06-29T18:27:23.297Z,28.16
2023-06-29T18:29:50.352Z,28.08
2023-06-29T18:32:18.177Z,27.99
2023-06-29T18:34:47.500Z,27.91
2023-06-29T18:37:14.478Z,27.82
2023-06-29T18:39:41.430Z,27.38
2023-06-29T18:42:08.635Z,26.73
2023-06-29T18:44:35.308Z,26.13
2023-06-29T18:47:07.697Z,26.26
2023-06-29T18:49:49.724Z,26.66
2023-06-29T18:52:17.985Z,26.80
2023-06-29T18:54:44.859Z,26.35
2023-06-29T18:57:11.861Z,26.03
2023-06-29T18:59:43.225Z,25.89
2023-06-29T19:02:10.352Z,26.01
2023-06-29T19:04:37.069Z,26.09
2023-06-29T19:07:03.977Z,26.19
2023-06-29T19:09:31.420Z,26.31
2023-06-29T19:12:00.582Z,26.29
2023-06-29T19:14:27.464Z,26.25
2023-06-29T19:16:56.873Z,26.22
2023-06-29T19:19:26.874Z,26.09
2023-06-29T19:21:54.835Z,26.13
2023-06-29T19:24:22.077Z,26.03
2023-06-29T19:26:50.389Z,26.01
2023-06-29T19:29:17.162Z,26.01
2023-06-29T19:31:45.192Z,25.94
2023-06-29T19:34:17.248Z,25.87
2023-06-29T19:36:48.470Z,25.69
2023-06-29T19:39:18.281Z,25.45
2023-06-29T19:41:45.823Z,25.25
2023-06-29T19:44:19.117Z,25.18
2023-06-29T19:46:47.509Z,25.04
2023-06-29T19:49:14.380Z,24.96
2023-06-29T19:51:41.042Z,24.93
2023-06-29T19:56:42.071Z,24.68
2023-06-29T19:59:09.056Z,24.47
2023-06-29T20:01:36.064Z,24.38
2023-06-29T20:04:02.862Z,24.34
2023-06-29T20:06:35.288Z,24.27
2023-06-29T20:09:01.937Z,24.19
2023-06-29T20:11:29.298Z,23.83
2023-06-29T20:13:56.251Z,23.70
2023-06-29T20:16:23.270Z,23.67
2023-06-29T20:18:51.606Z,23.72
2023-06-29T20:21:18.911Z,23.68
2023-06-29T20:23:53.359Z,23.43
2023-06-29T20:26:20.240Z,23.33
2023-06-29T20:28:47.016Z,23.36
2023-06-29T20:31:13.750Z,23.31
2023-06-29T20:33:40.464Z,23.27
2023-06-29T20:36:07.210Z,23.20
2023-06-29T20:38:33.961Z,23.06
2023-06-29T20:41:00.616Z,22.85
2023-06-29T20:43:27.310Z,22.76
2023-06-29T20:45:54.008Z,22.76
2023-06-29T20:48:20.736Z,22.72
2023-06-29T20:50:47.591Z,22.63
2023-06-29T20:53:15.604Z,22.44
2023-06-29T20:55:42.522Z,22.15
2023-06-29T20:58:10.711Z,22.17
2023-06-29T21:00:38.231Z,22.35
2023-06-29T21:03:07.229Z,22.46
2023-06-29T21:05:34.703Z,22.47
2023-06-29T21:08:01.661Z,22.19
2023-06-29T21:10:28.650Z,22.16
2023-06-29T21:12:55.955Z,22.11
2023-06-29T21:15:22.948Z,22.00
2023-06-29T21:17:50.057Z,21.68
2023-06-29T21:20:17.291Z,21.69
2023-06-29T21:22:46.269Z,21.56
2023-06-29T21:25:14.033Z,21.42
2023-06-29T21:27:42.676Z,21.31
2023-06-29T21:30:10.778Z,21.37
2023-06-29T21:32:37.924Z,21.28
2023-06-29T21:35:05.259Z,21.22
2023-06-29T21:37:32.095Z,21.21
2023-06-29T21:39:58.753Z,21.22
2023-06-29T21:42:25.658Z,21.19
2023-06-29T21:44:52.329Z,21.25
2023-06-29T21:47:19.093Z,21.08
2023-06-29T21:49:45.810Z,20.98
2023-06-29T21:52:12.440Z,20.84
2023-06-29T21:54:39.092Z,20.72
2023-06-29T21:57:06.173Z,20.82
2023-06-29T21:59:32.841Z,20.96
2023-06-29T22:02:00.903Z,20.98
2023-06-29T22:04:27.658Z,20.87
2023-06-29T22:07:02.729Z,20.82
2023-06-29T22:09:38.932Z,20.72
2023-06-29T22:12:06.243Z,20.81
2023-06-29T22:14:32.910Z,20.79
2023-06-29T22:16:59.972Z,20.58
2023-06-29T22:19:26.747Z,20.43
2023-06-29T22:21:53.414Z,20.26
2023-06-29T22:24:20.095Z,20.16
2023-06-29T22:26:46.720Z,20.06
2023-06-29T22:29:13.423Z,20.02
2023-06-29T22:31:40.131Z,20.04
2023-06-29T22:34:06.883Z,20.06
2023-06-29T22:36:33.511Z,20.00
2023-06-29T22:39:00.175Z,19.93
2023-06-29T22:41:26.841Z,19.85
2023-06-29T22:43:58.430Z,19.73
2023-06-29T22:46:26.404Z,19.78
2023-06-29T22:48:53.228Z,19.67
2023-06-29T22:51:25.662Z,19.71
2023-06-29T22:53:52.730Z,19.80
2023-06-29T22:56:23.166Z,19.90
2023-06-29T22:59:08.940Z,19.73
2023-06-29T23:01:36.174Z,19.75
2023-06-29T23:04:04.558Z,19.87
2023-06-29T23:06:31.205Z,19.68
2023-06-29T23:08:57.846Z,19.36
2023-06-29T23:11:32.122Z,19.42
2023-06-29T23:14:00.115Z,19.43
2023-06-29T23:16:27.412Z,19.58
2023-06-29T23:18:54.051Z,19.18
2023-06-29T23:21:22.230Z,19.31
2023-06-29T23:23:48.895Z,19.47
2023-06-29T23:26:18.134Z,19.24
2023-06-29T23:28:44.736Z,19.08
2023-06-29T23:31:11.398Z,19.04
2023-06-29T23:33:38.624Z,18.98
2023-06-29T23:36:05.565Z,18.88
2023-06-29T23:38:32.300Z,18.79
2023-06-29T23:40:59.250Z,18.98
2023-06-29T23:43:25.906Z,19.07
2023-06-29T23:45:52.625Z,19.18
2023-06-29T23:48:20.854Z,19.30
2023-06-29T23:50:48.629Z,19.18
2023-06-29T23:53:18.183Z,19.25
2023-06-29T23:55:45.113Z,19.23
2023-06-29T23:58:12.090Z,19.15
